createdAt,value
2023-04-12T00:03:20.981Z,100533.13
2023-04-12T00:08:33.367Z,100542.78
2023-04-12T00:13:36.140Z,100535.78
2023-04-12T00:18:38.822Z,100545.44
2023-04-12T00:23:41.587Z,100541.22
2023-04-12T00:28:45.536Z,100577.59
2023-04-12T00:33:48.239Z,100583.28
2023-04-12T00:38:51.176Z,100587.84
2023-04-12T00:43:54.228Z,100584.66
2023-04-12T00:48:58.328Z,100604.88
2023-04-12T00:54:04.194Z,100597.25
2023-04-12T00:59:08.132Z,100620.28
2023-04-12T01:04:14.381Z,100623.69
2023-04-12T01:09:30.584Z,100627.31
2023-04-12T01:14:45.840Z,100631.94
2023-04-12T01:20:02.437Z,100643.38
2023-04-12T01:25:28.577Z,100653.50
2023-04-12T01:30:32.028Z,100654.81
2023-04-12T01:35:35.447Z,100663.41
2023-04-12T01:40:41.149Z,100660.16
2023-04-12T01:45:43.913Z,100667.84
2023-04-12T01:51:21.165Z,100687.22
2023-04-12T01:56:25.811Z,100684.50
2023-04-12T02:01:29.567Z,100683.16
2023-04-12T02:06:33.785Z,100690.13
2023-04-12T02:11:36.628Z,100679.91
2023-04-12T02:16:39.850Z,100689.34
2023-04-12T02:21:43.805Z,100692.53
2023-04-12T02:26:47.007Z,100696.75
2023-04-12T02:31:50.069Z,100704.94
2023-04-12T02:36:53.153Z,100712.03
2023-04-12T02:41:57.122Z,100714.13
2023-04-12T02:47:01.037Z,100721.56
2023-04-12T02:52:05.822Z,100725.16
2023-04-12T02:57:17.074Z,100721.31
2023-04-12T03:02:23.776Z,100721.09
2023-04-12T03:07:31.358Z,100727.25
2023-04-12T03:12:34.487Z,100733.34
2023-04-12T03:17:49.829Z,100748.94
2023-04-12T03:22:55.941Z,100736.41
2023-04-12T03:27:58.916Z,100739.03
2023-04-12T03:33:15.497Z,100747.47
2023-04-12T03:38:18.402Z,100755.50
2023-04-12T03:43:21.316Z,100755.72
2023-04-12T03:48:24.416Z,100758.38
2023-04-12T03:53:31.993Z,100756.94
2023-04-12T03:58:36.821Z,100769.56
2023-04-12T04:03:41.917Z,100752.88
2023-04-12T04:08:54.853Z,100755.91
2023-04-12T04:13:57.882Z,100757.06
2023-04-12T04:19:01.650Z,100759.03
2023-04-12T04:24:04.836Z,100760.47
2023-04-12T04:29:12.333Z,100774.47
2023-04-12T04:34:16.630Z,100771.19
2023-04-12T04:39:22.243Z,100770.41
2023-04-12T04:44:26.130Z,100775.22
2023-04-12T04:49:31.448Z,100768.22
2023-04-12T04:54:40.518Z,100774.91
2023-04-12T04:59:44.364Z,100778.22
2023-04-12T05:04:52.754Z,100774.25
2023-04-12T05:09:58.339Z,100777.41
2023-04-12T05:20:08.787Z,100798.09
2023-04-12T05:25:11.729Z,100782.13
2023-04-12T05:30:30.636Z,100783.25
2023-04-12T05:35:34.291Z,100793.97
2023-04-12T05:40:37.123Z,100779.91
2023-04-12T05:45:42.100Z,100779.06
2023-04-12T05:50:53.196Z,100776.66
2023-04-12T05:55:57.606Z,100762.50
2023-04-12T06:01:00.724Z,100774.91
2023-04-12T06:06:04.228Z,100764.44
2023-04-12T06:11:08.444Z,100755.47
2023-04-12T06:16:11.621Z,100773.38
2023-04-12T06:21:14.748Z,100762.31
2023-04-12T06:26:18.926Z,100762.22
2023-04-12T06:31:22.241Z,100756.44
2023-04-12T06:36:25.257Z,100759.41
2023-04-12T06:41:27.960Z,100741.84
2023-04-12T06:46:36.387Z,100736.75
2023-04-12T06:51:39.095Z,100751.44
2023-04-12T06:56:42.006Z,100755.16
2023-04-12T07:01:45.037Z,100762.50
2023-04-12T07:06:47.735Z,100777.69
2023-04-12T07:11:50.791Z,100761.69
2023-04-12T07:16:53.725Z,100759.34
2023-04-12T07:21:56.575Z,100776.28
2023-04-12T07:26:59.320Z,100771.19
2023-04-12T07:32:02.021Z,100782.69
2023-04-12T07:37:04.718Z,100775.09
2023-04-12T07:42:07.509Z,100760.66
2023-04-12T07:47:10.260Z,100763.94
2023-04-12T07:52:12.924Z,100784.09
2023-04-12T07:57:15.842Z,100761.53
2023-04-12T08:02:25.224Z,100784.22
2023-04-12T08:07:28.116Z,100777.06
2023-04-12T08:12:30.890Z,100774.38
2023-04-12T08:17:33.673Z,100776.75
2023-04-12T08:22:36.431Z,100778.03
2023-04-12T08:27:46.258Z,100776.66
2023-04-12T08:32:49.034Z,100759.28
2023-04-12T08:37:52.176Z,100772.56
2023-04-12T08:42:55.165Z,100775.94
2023-04-12T08:47:58.038Z,100786.88
2023-04-12T08:53:00.827Z,100789.69
2023-04-12T08:58:07.703Z,100780.63
2023-04-12T09:03:13.426Z,100795.13
2023-04-12T09:08:17.873Z,100779.81
2023-04-12T09:13:35.814Z,100787.03
2023-04-12T09:18:51.996Z,100769.47
2023-04-12T09:24:05.022Z,100780.69
2023-04-12T09:29:24.153Z,100789.56
2023-04-12T09:34:28.098Z,100787.25
2023-04-12T09:39:32.641Z,100780.31
2023-04-12T09:44:35.867Z,100784.22
2023-04-12T09:49:40.435Z,100787.34
2023-04-12T09:54:45.137Z,100787.38
2023-04-12T09:59:50.023Z,100793.94
2023-04-12T10:04:53.101Z,100786.13
2023-04-12T10:09:58.864Z,100777.38
2023-04-12T10:15:06.933Z,100787.66
2023-04-12T10:20:10.532Z,100777.31
2023-04-12T10:25:17.287Z,100765.88
2023-04-12T10:30:31.006Z,100774.75
2023-04-12T10:35:49.096Z,100775.63
2023-04-12T10:41:20.312Z,100772.31
2023-04-12T10:46:41.415Z,100789.16
2023-04-12T10:52:03.036Z,100776.34
2023-04-12T10:57:06.939Z,100784.84
2023-04-12T11:02:17.249Z,100786.78
2023-04-12T11:07:40.035Z,100791.34
2023-04-12T11:13:09.353Z,100786.03
2023-04-12T11:18:12.510Z,100790.66
2023-04-12T11:23:15.797Z,100787.34
2023-04-12T11:28:28.510Z,100784.19
2023-04-12T11:33:39.442Z,100774.41
2023-04-12T11:38:42.457Z,100769.13
2023-04-12T11:43:46.355Z,100771.19
2023-04-12T11:48:49.299Z,100767.94
2023-04-12T11:53:56.033Z,100762.81
2023-04-12T11:58:59.335Z,100763.94
2023-04-12T12:04:02.552Z,100781.19
2023-04-12T12:09:06.633Z,100781.44
2023-04-12T12:14:09.537Z,100781.69
2023-04-12T12:19:12.340Z,100789.09
2023-04-12T12:24:15.510Z,100791.38
2023-04-12T12:29:22.975Z,100790.00
2023-04-12T12:34:25.789Z,100780.34
2023-04-12T12:39:28.988Z,100785.88
2023-04-12T12:44:38.003Z,100794.03
2023-04-12T12:49:41.141Z,100792.16
2023-04-12T12:54:44.114Z,100796.44
2023-04-12T12:59:46.951Z,100801.16
2023-04-12T13:04:50.240Z,100801.34
2023-04-12T13:09:53.202Z,100810.06
2023-04-12T13:15:00.334Z,100804.28
2023-04-12T13:20:16.916Z,100811.34
2023-04-12T13:25:21.036Z,100795.63
2023-04-12T13:30:23.929Z,100809.59
2023-04-12T13:35:26.865Z,100810.28
2023-04-12T13:40:29.856Z,100815.34
2023-04-12T13:45:34.167Z,100814.84
2023-04-12T13:50:37.261Z,100820.38
2023-04-12T13:55:40.126Z,100813.28
2023-04-12T14:00:43.018Z,100821.31
2023-04-12T14:05:46.015Z,100817.25
2023-04-12T14:10:48.934Z,100821.59
2023-04-12T14:15:52.240Z,100812.53
2023-04-12T14:20:55.384Z,100810.28
2023-04-12T14:25:58.219Z,100805.81
2023-04-12T14:31:04.279Z,100795.50
2023-04-12T14:36:08.973Z,100803.44
2023-04-12T14:41:12.828Z,100800.69
2023-04-12T14:46:17.830Z,100777.63
2023-04-12T14:51:20.721Z,100799.28
2023-04-12T14:56:28.573Z,100802.78
2023-04-12T15:01:34.279Z,100792.91
2023-04-12T15:06:42.764Z,100790.69
2023-04-12T15:11:50.063Z,100784.91
2023-04-12T15:16:53.794Z,100779.56
2023-04-12T15:21:56.903Z,100781.56
2023-04-12T15:27:00.531Z,100780.50
2023-04-12T15:32:03.379Z,100777.72
2023-04-12T15:37:06.340Z,100758.34
2023-04-12T15:42:09.184Z,100758.09
2023-04-12T15:47:12.577Z,100752.88
2023-04-12T15:52:15.678Z,100748.31
2023-04-12T15:57:18.511Z,100735.06
2023-04-12T16:02:22.277Z,100729.56
2023-04-12T16:07:25.906Z,100722.13
2023-04-12T16:12:28.820Z,100707.63
2023-04-12T16:17:31.784Z,100703.84
2023-04-12T16:22:34.740Z,100698.94
2023-04-12T16:27:37.682Z,100686.34
2023-04-12T16:32:40.585Z,100683.13
2023-04-12T16:37:45.086Z,100663.69
2023-04-12T16:42:47.929Z,100665.22
2023-04-12T16:47:51.162Z,100624.78
2023-04-12T16:52:54.122Z,100656.69
2023-04-12T16:57:58.579Z,100654.03
2023-04-12T17:03:01.534Z,100644.25
2023-04-12T17:08:06.106Z,100651.91
2023-04-12T17:13:09.421Z,100644.63
2023-04-12T17:18:12.258Z,100635.81
2023-04-12T17:23:16.560Z,100643.69
2023-04-12T17:28:19.920Z,100646.09
2023-04-12T17:33:22.890Z,100628.19
2023-04-12T17:38:26.082Z,100627.91
2023-04-12T17:43:28.949Z,100623.19
2023-04-12T17:48:33.053Z,100595.28
2023-04-12T17:53:36.416Z,100597.84
2023-04-12T17:58:39.311Z,100600.22
2023-04-12T18:03:42.925Z,100602.50
2023-04-12T18:08:47.300Z,100592.44
2023-04-12T18:13:50.321Z,100585.50
2023-04-12T18:18:55.245Z,100587.84
2023-04-12T18:23:58.434Z,100573.06
2023-04-12T18:29:01.446Z,100567.78
2023-04-12T18:34:04.298Z,100567.34
2023-04-12T18:39:08.353Z,100564.19
2023-04-12T18:44:13.610Z,100555.75
2023-04-12T18:49:16.564Z,100548.19
2023-04-12T18:54:19.968Z,100531.97
2023-04-12T18:59:23.128Z,100539.31
2023-04-12T19:04:26.254Z,100531.19
2023-04-12T19:09:29.433Z,100523.03
2023-04-12T19:14:32.534Z,100518.06
2023-04-12T19:19:35.316Z,100495.09
2023-04-12T19:24:38.242Z,100493.16
2023-04-12T19:29:41.240Z,100498.41
2023-04-12T19:34:44.488Z,100487.34
2023-04-12T19:39:47.478Z,100479.53
2023-04-12T19:44:51.963Z,100456.81
2023-04-12T19:49:55.591Z,100461.06
2023-04-12T19:55:01.797Z,100460.38
2023-04-12T20:00:13.194Z,100438.09
2023-04-12T20:05:18.966Z,100400.94
2023-04-12T20:10:22.269Z,100422.94
2023-04-12T20:15:25.138Z,100412.59
2023-04-12T20:20:27.854Z,100399.03
2023-04-12T20:25:30.611Z,100388.19
2023-04-12T20:30:33.404Z,100368.63
2023-04-12T20:35:36.242Z,100343.66
2023-04-12T20:40:40.100Z,100326.19
2023-04-12T20:45:42.814Z,100323.16
2023-04-12T20:50:46.646Z,100303.34
2023-04-12T20:55:49.295Z,100285.91
2023-04-12T21:00:51.973Z,100274.06
2023-04-12T21:05:54.710Z,100246.94
2023-04-12T21:10:59.018Z,100253.63
2023-04-12T21:16:05.743Z,100232.97
2023-04-12T21:21:08.557Z,100226.03
2023-04-12T21:26:11.340Z,100204.66
2023-04-12T21:31:14.048Z,100197.22
2023-04-12T21:36:18.326Z,100191.09
2023-04-12T21:41:21.671Z,100172.41
2023-04-12T21:46:28.474Z,100157.47
2023-04-12T21:51:32.110Z,100154.31
2023-04-12T21:56:34.976Z,100156.94
2023-04-12T22:01:38.309Z,100149.63
2023-04-12T22:06:41.062Z,100149.09
2023-04-12T22:11:43.774Z,100150.06
2023-04-12T22:16:47.113Z,100146.03
2023-04-12T22:21:49.890Z,100130.91
2023-04-12T22:26:52.893Z,100130.13
2023-04-12T22:31:55.941Z,100103.78
2023-04-12T22:37:03.674Z,100111.44
2023-04-12T22:42:06.705Z,100102.53
2023-04-12T22:47:10.231Z,100113.94
2023-04-12T22:52:13.927Z,100108.25
2023-04-12T22:57:16.705Z,100097.97
2023-04-12T23:02:19.508Z,100092.63
2023-04-12T23:07:22.508Z,100090.59
2023-04-12T23:12:25.614Z,100080.75
2023-04-12T23:17:29.672Z,100083.72
2023-04-12T23:22:55.367Z,100079.72
2023-04-12T23:27:59.864Z,100062.16
2023-04-12T23:33:02.553Z,100061.03
2023-04-12T23:38:06.105Z,100046.44
2023-04-12T23:43:09.675Z,100038.28
2023-04-12T23:48:12.875Z,100032.75
2023-04-12T23:53:17.125Z,100014.59
2023-04-12T23:58:20.120Z,100012.22
